sensor_id;sensor_type;location;lat;lon;timestamp;P1;durP1;ratioP1;P2;durP2;ratioP2
11113;SDS011;5610;52.154;9.198;2024-02-26T00:02:08;3.17;;;2.58;;
11113;SDS011;5610;52.154;9.198;2024-02-26T00:04:53;3.53;;;2.47;;
11113;SDS011;5610;52.154;9.198;2024-02-26T00:07:39;2.00;;;1.90;;
11113;SDS011;5610;52.154;9.198;2024-02-26T00:10:24;2.30;;;2.10;;
11113;SDS011;5610;52.154;9.198;2024-02-26T00:13:10;2.30;;;2.10;;
11113;SDS011;5610;52.154;9.198;2024-02-26T00:15:55;2.08;;;1.88;;
11113;SDS011;5610;52.154;9.198;2024-02-26T00:18:41;2.42;;;2.08;;
11113;SDS011;5610;52.154;9.198;2024-02-26T00:21:26;3.17;;;2.25;;
11113;SDS011;5610;52.154;9.198;2024-02-26T00:24:11;2.38;;;1.73;;
11113;SDS011;5610;52.154;9.198;2024-02-26T00:26:56;2.13;;;2.00;;
11113;SDS011;5610;52.154;9.198;2024-02-26T00:29:43;2.78;;;2.33;;
11113;SDS011;5610;52.154;9.198;2024-02-26T00:32:28;4.57;;;2.40;;
11113;SDS011;5610;52.154;9.198;2024-02-26T00:35:13;1.90;;;1.80;;
11113;SDS011;5610;52.154;9.198;2024-02-26T00:37:59;1.70;;;1.60;;
11113;SDS011;5610;52.154;9.198;2024-02-26T00:40:45;2.47;;;1.80;;
11113;SDS011;5610;52.154;9.198;2024-02-26T00:43:31;1.83;;;1.73;;
11113;SDS011;5610;52.154;9.198;2024-02-26T00:46:17;2.17;;;1.50;;
11113;SDS011;5610;52.154;9.198;2024-02-26T00:49:03;2.58;;;1.38;;
11113;SDS011;5610;52.154;9.198;2024-02-26T00:51:48;1.60;;;1.50;;
11113;SDS011;5610;52.154;9.198;2024-02-26T00:54:33;3.22;;;1.88;;
11113;SDS011;5610;52.154;9.198;2024-02-26T00:57:18;2.72;;;2.00;;
11113;SDS011;5610;52.154;9.198;2024-02-26T01:00:03;6.90;;;2.35;;
11113;SDS011;5610;52.154;9.198;2024-02-26T01:02:52;3.83;;;2.85;;
11113;SDS011;5610;52.154;9.198;2024-02-26T01:05:37;2.92;;;2.70;;
11113;SDS011;5610;52.154;9.198;2024-02-26T01:08:23;3.75;;;3.00;;
11113;SDS011;5610;52.154;9.198;2024-02-26T01:11:08;2.55;;;2.35;;
11113;SDS011;5610;52.154;9.198;2024-02-26T01:13:53;3.03;;;2.40;;
11113;SDS011;5610;52.154;9.198;2024-02-26T01:16:40;3.65;;;2.67;;
11113;SDS011;5610;52.154;9.198;2024-02-26T01:19:26;3.00;;;2.80;;
11113;SDS011;5610;52.154;9.198;2024-02-26T01:22:11;4.97;;;2.95;;
11113;SDS011;5610;52.154;9.198;2024-02-26T01:24:57;2.53;;;2.33;;
11113;SDS011;5610;52.154;9.198;2024-02-26T01:27:42;2.78;;;2.55;;
11113;SDS011;5610;52.154;9.198;2024-02-26T01:30:27;2.83;;;2.63;;
11113;SDS011;5610;52.154;9.198;2024-02-26T01:33:13;3.10;;;2.78;;
11113;SDS011;5610;52.154;9.198;2024-02-26T01:35:59;3.10;;;2.88;;
11113;SDS011;5610;52.154;9.198;2024-02-26T01:38:45;3.40;;;2.97;;
11113;SDS011;5610;52.154;9.198;2024-02-26T01:41:30;4.53;;;2.65;;
11113;SDS011;5610;52.154;9.198;2024-02-26T01:44:15;3.78;;;2.78;;
11113;SDS011;5610;52.154;9.198;2024-02-26T01:47:00;2.60;;;2.40;;
11113;SDS011;5610;52.154;9.198;2024-02-26T01:49:46;4.15;;;2.70;;
11113;SDS011;5610;52.154;9.198;2024-02-26T01:52:33;3.72;;;2.70;;
11113;SDS011;5610;52.154;9.198;2024-02-26T01:55:19;2.47;;;2.28;;
11113;SDS011;5610;52.154;9.198;2024-02-26T01:58:05;6.45;;;2.97;;
11113;SDS011;5610;52.154;9.198;2024-02-26T02:00:50;3.67;;;2.70;;
11113;SDS011;5610;52.154;9.198;2024-02-26T02:03:36;3.60;;;2.67;;
11113;SDS011;5610;52.154;9.198;2024-02-26T02:06:21;3.50;;;2.90;;
11113;SDS011;5610;52.154;9.198;2024-02-26T02:09:08;2.70;;;2.50;;
11113;SDS011;5610;52.154;9.198;2024-02-26T02:11:53;2.88;;;2.63;;
11113;SDS011;5610;52.154;9.198;2024-02-26T02:14:39;2.55;;;1.90;;
11113;SDS011;5610;52.154;9.198;2024-02-26T02:17:25;3.08;;;2.28;;
11113;SDS011;5610;52.154;9.198;2024-02-26T02:20:14;3.00;;;2.50;;
11113;SDS011;5610;52.154;9.198;2024-02-26T02:23:02;3.65;;;2.00;;
11113;SDS011;5610;52.154;9.198;2024-02-26T02:25:47;2.42;;;2.22;;
11113;SDS011;5610;52.154;9.198;2024-02-26T02:28:33;2.05;;;1.85;;
11113;SDS011;5610;52.154;9.198;2024-02-26T02:31:18;2.33;;;2.13;;
11113;SDS011;5610;52.154;9.198;2024-02-26T02:34:04;2.30;;;2.10;;
11113;SDS011;5610;52.154;9.198;2024-02-26T02:36:51;2.20;;;2.10;;
11113;SDS011;5610;52.154;9.198;2024-02-26T02:39:38;2.25;;;2.03;;
11113;SDS011;5610;52.154;9.198;2024-02-26T02:42:23;3.10;;;2.42;;
11113;SDS011;5610;52.154;9.198;2024-02-26T02:45:09;2.00;;;1.88;;
11113;SDS011;5610;52.154;9.198;2024-02-26T02:47:54;1.63;;;1.52;;
11113;SDS011;5610;52.154;9.198;2024-02-26T02:50:39;2.17;;;1.63;;
11113;SDS011;5610;52.154;9.198;2024-02-26T02:53:24;1.90;;;1.80;;
11113;SDS011;5610;52.154;9.198;2024-02-26T02:56:10;1.90;;;1.70;;
11113;SDS011;5610;52.154;9.198;2024-02-26T02:58:56;1.80;;;1.70;;
11113;SDS011;5610;52.154;9.198;2024-02-26T03:01:41;2.33;;;1.58;;
11113;SDS011;5610;52.154;9.198;2024-02-26T03:04:26;1.20;;;1.13;;
11113;SDS011;5610;52.154;9.198;2024-02-26T03:07:13;1.20;;;1.10;;
11113;SDS011;5610;52.154;9.198;2024-02-26T03:09:58;1.30;;;1.20;;
11113;SDS011;5610;52.154;9.198;2024-02-26T03:12:45;1.25;;;1.15;;
11113;SDS011;5610;52.154;9.198;2024-02-26T03:15:30;1.20;;;1.10;;
11113;SDS011;5610;52.154;9.198;2024-02-26T03:18:16;1.50;;;1.40;;
11113;SDS011;5610;52.154;9.198;2024-02-26T03:21:01;1.40;;;1.30;;
11113;SDS011;5610;52.154;9.198;2024-02-26T03:23:46;1.40;;;1.30;;
11113;SDS011;5610;52.154;9.198;2024-02-26T03:26:31;1.80;;;1.37;;
11113;SDS011;5610;52.154;9.198;2024-02-26T03:29:18;1.83;;;1.03;;
11113;SDS011;5610;52.154;9.198;2024-02-26T03:32:04;2.00;;;1.30;;
11113;SDS011;5610;52.154;9.198;2024-02-26T03:34:50;1.60;;;1.50;;
11113;SDS011;5610;52.154;9.198;2024-02-26T03:37:37;1.70;;;1.60;;
11113;SDS011;5610;52.154;9.198;2024-02-26T03:40:22;2.60;;;1.30;;
11113;SDS011;5610;52.154;9.198;2024-02-26T03:43:07;1.57;;;1.00;;
11113;SDS011;5610;52.154;9.198;2024-02-26T03:45:54;1.67;;;1.50;;
11113;SDS011;5610;52.154;9.198;2024-02-26T03:48:39;1.40;;;1.30;;
11113;SDS011;5610;52.154;9.198;2024-02-26T03:51:24;1.43;;;1.33;;
11113;SDS011;5610;52.154;9.198;2024-02-26T03:54:10;1.50;;;1.40;;
11113;SDS011;5610;52.154;9.198;2024-02-26T03:56:55;1.90;;;1.43;;
11113;SDS011;5610;52.154;9.198;2024-02-26T03:59:40;2.63;;;1.60;;
11113;SDS011;5610;52.154;9.198;2024-02-26T04:02:27;1.67;;;1.10;;
11113;SDS011;5610;52.154;9.198;2024-02-26T04:05:12;1.47;;;1.37;;
11113;SDS011;5610;52.154;9.198;2024-02-26T04:07:58;1.83;;;1.50;;
11113;SDS011;5610;52.154;9.198;2024-02-26T04:10:43;2.00;;;1.43;;
11113;SDS011;5610;52.154;9.198;2024-02-26T04:13:28;1.40;;;1.30;;
11113;SDS011;5610;52.154;9.198;2024-02-26T04:16:13;2.10;;;1.70;;
11113;SDS011;5610;52.154;9.198;2024-02-26T04:19:00;1.93;;;1.27;;
11113;SDS011;5610;52.154;9.198;2024-02-26T04:21:45;1.20;;;1.10;;
11113;SDS011;5610;52.154;9.198;2024-02-26T04:24:31;1.37;;;1.27;;
11113;SDS011;5610;52.154;9.198;2024-02-26T04:27:16;1.50;;;1.20;;
11113;SDS011;5610;52.154;9.198;2024-02-26T04:30:01;1.40;;;1.30;;
11113;SDS011;5610;52.154;9.198;2024-02-26T04:32:47;1.50;;;1.40;;
11113;SDS011;5610;52.154;9.198;2024-02-26T04:35:34;1.50;;;1.20;;
11113;SDS011;5610;52.154;9.198;2024-02-26T04:38:19;1.33;;;1.17;;
11113;SDS011;5610;52.154;9.198;2024-02-26T04:41:06;1.40;;;1.30;;
11113;SDS011;5610;52.154;9.198;2024-02-26T04:43:51;1.80;;;1.57;;
11113;SDS011;5610;52.154;9.198;2024-02-26T04:46:36;1.13;;;1.03;;
11113;SDS011;5610;52.154;9.198;2024-02-26T04:49:21;1.30;;;1.20;;
11113;SDS011;5610;52.154;9.198;2024-02-26T04:52:08;1.70;;;1.60;;
11113;SDS011;5610;52.154;9.198;2024-02-26T04:54:53;1.70;;;1.23;;
11113;SDS011;5610;52.154;9.198;2024-02-26T04:57:39;1.70;;;1.27;;
11113;SDS011;5610;52.154;9.198;2024-02-26T05:00:24;1.80;;;1.70;;
11113;SDS011;5610;52.154;9.198;2024-02-26T05:03:09;1.10;;;1.00;;
11113;SDS011;5610;52.154;9.198;2024-02-26T05:05:57;3.10;;;2.90;;
11113;SDS011;5610;52.154;9.198;2024-02-26T05:08:43;3.30;;;3.00;;
11113;SDS011;5610;52.154;9.198;2024-02-26T05:11:29;3.20;;;3.00;;
11113;SDS011;5610;52.154;9.198;2024-02-26T05:14:14;1.50;;;1.40;;
11113;SDS011;5610;52.154;9.198;2024-02-26T05:16:59;1.57;;;1.47;;
11113;SDS011;5610;52.154;9.198;2024-02-26T05:19:45;1.63;;;1.50;;
11113;SDS011;5610;52.154;9.198;2024-02-26T05:22:30;2.60;;;1.60;;
11113;SDS011;5610;52.154;9.198;2024-02-26T05:25:16;1.53;;;1.43;;
11113;SDS011;5610;52.154;9.198;2024-02-26T05:28:01;1.53;;;1.43;;
11113;SDS011;5610;52.154;9.198;2024-02-26T05:30:47;1.20;;;1.10;;
11113;SDS011;5610;52.154;9.198;2024-02-26T05:33:32;1.40;;;1.30;;
11113;SDS011;5610;52.154;9.198;2024-02-26T05:36:17;1.97;;;1.50;;
11113;SDS011;5610;52.154;9.198;2024-02-26T05:39:05;1.37;;;1.27;;
11113;SDS011;5610;52.154;9.198;2024-02-26T05:41:52;1.60;;;1.50;;
11113;SDS011;5610;52.154;9.198;2024-02-26T05:44:37;1.10;;;1.00;;
11113;SDS011;5610;52.154;9.198;2024-02-26T05:47:22;1.50;;;1.40;;
11113;SDS011;5610;52.154;9.198;2024-02-26T05:50:08;1.53;;;1.10;;
11113;SDS011;5610;52.154;9.198;2024-02-26T05:52:54;1.30;;;1.20;;
11113;SDS011;5610;52.154;9.198;2024-02-26T05:55:39;2.00;;;1.40;;
11113;SDS011;5610;52.154;9.198;2024-02-26T05:58:26;2.93;;;1.70;;
11113;SDS011;5610;52.154;9.198;2024-02-26T06:01:11;3.53;;;1.57;;
11113;SDS011;5610;52.154;9.198;2024-02-26T06:03:56;2.77;;;1.80;;
11113;SDS011;5610;52.154;9.198;2024-02-26T06:06:42;1.77;;;1.60;;
11113;SDS011;5610;52.154;9.198;2024-02-26T06:09:27;1.60;;;1.50;;
11113;SDS011;5610;52.154;9.198;2024-02-26T06:12:12;1.83;;;1.70;;
11113;SDS011;5610;52.154;9.198;2024-02-26T06:14:58;2.50;;;1.80;;
11113;SDS011;5610;52.154;9.198;2024-02-26T06:17:44;2.43;;;2.00;;
11113;SDS011;5610;52.154;9.198;2024-02-26T06:20:29;3.60;;;2.50;;
11113;SDS011;5610;52.154;9.198;2024-02-26T06:23:14;3.67;;;1.93;;
11113;SDS011;5610;52.154;9.198;2024-02-26T06:26:00;2.33;;;2.10;;
11113;SDS011;5610;52.154;9.198;2024-02-26T06:28:45;2.90;;;2.30;;
11113;SDS011;5610;52.154;9.198;2024-02-26T06:31:31;2.80;;;2.60;;
11113;SDS011;5610;52.154;9.198;2024-02-26T06:34:16;3.10;;;2.90;;
11113;SDS011;5610;52.154;9.198;2024-02-26T06:37:01;5.47;;;3.70;;
11113;SDS011;5610;52.154;9.198;2024-02-26T06:39:47;5.47;;;4.30;;
11113;SDS011;5610;52.154;9.198;2024-02-26T06:42:32;6.17;;;5.10;;
11113;SDS011;5610;52.154;9.198;2024-02-26T06:45:17;8.70;;;5.70;;
11113;SDS011;5610;52.154;9.198;2024-02-26T06:48:04;5.80;;;5.20;;
11113;SDS011;5610;52.154;9.198;2024-02-26T06:50:50;7.20;;;6.00;;
11113;SDS011;5610;52.154;9.198;2024-02-26T06:53:36;8.47;;;6.60;;
11113;SDS011;5610;52.154;9.198;2024-02-26T06:56:21;9.80;;;6.97;;
11113;SDS011;5610;52.154;9.198;2024-02-26T06:59:06;9.07;;;6.50;;
11113;SDS011;5610;52.154;9.198;2024-02-26T07:01:52;8.53;;;6.90;;
11113;SDS011;5610;52.154;9.198;2024-02-26T07:04:39;7.90;;;7.13;;
11113;SDS011;5610;52.154;9.198;2024-02-26T07:07:25;7.67;;;6.97;;
11113;SDS011;5610;52.154;9.198;2024-02-26T07:10:10;9.30;;;7.10;;
11113;SDS011;5610;52.154;9.198;2024-02-26T07:12:56;8.83;;;7.40;;
11113;SDS011;5610;52.154;9.198;2024-02-26T07:15:41;8.83;;;7.80;;
11113;SDS011;5610;52.154;9.198;2024-02-26T07:18:26;8.23;;;7.33;;
11113;SDS011;5610;52.154;9.198;2024-02-26T07:21:13;8.60;;;7.60;;
11113;SDS011;5610;52.154;9.198;2024-02-26T07:23:58;8.77;;;6.87;;
11113;SDS011;5610;52.154;9.198;2024-02-26T07:26:43;7.17;;;6.50;;
11113;SDS011;5610;52.154;9.198;2024-02-26T07:29:28;7.60;;;6.90;;
11113;SDS011;5610;52.154;9.198;2024-02-26T07:32:14;8.00;;;6.67;;
11113;SDS011;5610;52.154;9.198;2024-02-26T07:34:59;7.60;;;6.73;;
11113;SDS011;5610;52.154;9.198;2024-02-26T07:37:46;8.20;;;7.50;;
11113;SDS011;5610;52.154;9.198;2024-02-26T07:40:32;8.50;;;7.70;;
11113;SDS011;5610;52.154;9.198;2024-02-26T07:43:18;10.70;;;7.53;;
11113;SDS011;5610;52.154;9.198;2024-02-26T07:46:03;8.50;;;7.10;;
11113;SDS011;5610;52.154;9.198;2024-02-26T07:48:48;10.40;;;8.90;;
11113;SDS011;5610;52.154;9.198;2024-02-26T07:51:33;8.20;;;7.30;;
11113;SDS011;5610;52.154;9.198;2024-02-26T07:54:21;8.33;;;7.53;;
11113;SDS011;5610;52.154;9.198;2024-02-26T07:57:06;10.03;;;8.40;;
11113;SDS011;5610;52.154;9.198;2024-02-26T07:59:51;13.23;;;8.00;;
11113;SDS011;5610;52.154;9.198;2024-02-26T08:02:36;8.20;;;7.40;;
11113;SDS011;5610;52.154;9.198;2024-02-26T08:05:21;8.60;;;7.70;;
11113;SDS011;5610;52.154;9.198;2024-02-26T08:08:06;7.73;;;7.03;;
11113;SDS011;5610;52.154;9.198;2024-02-26T08:10:53;8.27;;;7.40;;
11113;SDS011;5610;52.154;9.198;2024-02-26T08:13:38;8.80;;;7.80;;
11113;SDS011;5610;52.154;9.198;2024-02-26T08:16:23;8.80;;;7.90;;
11113;SDS011;5610;52.154;9.198;2024-02-26T08:19:08;9.37;;;7.90;;
11113;SDS011;5610;52.154;9.198;2024-02-26T08:21:55;14.70;;;9.00;;
11113;SDS011;5610;52.154;9.198;2024-02-26T08:24:40;8.90;;;6.00;;
11113;SDS011;5610;52.154;9.198;2024-02-26T08:27:26;8.83;;;6.67;;
11113;SDS011;5610;52.154;9.198;2024-02-26T08:30:12;8.23;;;6.67;;
11113;SDS011;5610;52.154;9.198;2024-02-26T08:33:01;8.73;;;6.57;;
11113;SDS011;5610;52.154;9.198;2024-02-26T08:35:47;7.50;;;6.10;;
11113;SDS011;5610;52.154;9.198;2024-02-26T08:38:32;8.00;;;6.40;;
11113;SDS011;5610;52.154;9.198;2024-02-26T08:41:18;7.53;;;5.40;;
11113;SDS011;5610;52.154;9.198;2024-02-26T08:44:05;5.93;;;5.33;;
11113;SDS011;5610;52.154;9.198;2024-02-26T08:46:50;6.13;;;5.53;;
11113;SDS011;5610;52.154;9.198;2024-02-26T08:49:35;7.50;;;4.07;;
11113;SDS011;5610;52.154;9.198;2024-02-26T08:52:20;5.20;;;4.70;;
11113;SDS011;5610;52.154;9.198;2024-02-26T08:55:07;5.90;;;4.90;;
11113;SDS011;5610;52.154;9.198;2024-02-26T08:57:53;5.17;;;4.67;;
11113;SDS011;5610;52.154;9.198;2024-02-26T09:00:39;6.20;;;5.47;;
11113;SDS011;5610;52.154;9.198;2024-02-26T09:03:25;4.73;;;4.30;;
11113;SDS011;5610;52.154;9.198;2024-02-26T09:06:10;5.70;;;5.20;;
11113;SDS011;5610;52.154;9.198;2024-02-26T09:08:56;5.20;;;4.70;;
11113;SDS011;5610;52.154;9.198;2024-02-26T09:11:41;5.37;;;4.67;;
11113;SDS011;5610;52.154;9.198;2024-02-26T09:14:26;6.00;;;4.63;;
11113;SDS011;5610;52.154;9.198;2024-02-26T09:17:12;6.53;;;4.37;;
11113;SDS011;5610;52.154;9.198;2024-02-26T09:19:57;5.87;;;4.50;;
11113;SDS011;5610;52.154;9.198;2024-02-26T09:22:43;4.27;;;3.87;;
11113;SDS011;5610;52.154;9.198;2024-02-26T09:25:28;4.30;;;3.90;;
11113;SDS011;5610;52.154;9.198;2024-02-26T09:28:13;4.73;;;4.33;;
11113;SDS011;5610;52.154;9.198;2024-02-26T09:31:00;4.60;;;4.20;;
11113;SDS011;5610;52.154;9.198;2024-02-26T09:33:47;4.50;;;4.10;;
11113;SDS011;5610;52.154;9.198;2024-02-26T09:36:32;5.00;;;4.60;;
11113;SDS011;5610;52.154;9.198;2024-02-26T09:39:17;5.27;;;4.77;;
11113;SDS011;5610;52.154;9.198;2024-02-26T09:42:05;5.07;;;4.57;;
11113;SDS011;5610;52.154;9.198;2024-02-26T09:44:53;4.47;;;4.07;;
11113;SDS011;5610;52.154;9.198;2024-02-26T09:47:39;6.00;;;5.40;;
11113;SDS011;5610;52.154;9.198;2024-02-26T09:50:27;6.17;;;5.60;;
11113;SDS011;5610;52.154;9.198;2024-02-26T09:53:12;6.47;;;5.37;;
11113;SDS011;5610;52.154;9.198;2024-02-26T09:55:58;6.13;;;5.53;;
11113;SDS011;5610;52.154;9.198;2024-02-26T09:58:44;6.77;;;5.53;;
11113;SDS011;5610;52.154;9.198;2024-02-26T10:01:32;6.73;;;6.03;;
11113;SDS011;5610;52.154;9.198;2024-02-26T10:04:19;6.10;;;5.50;;
11113;SDS011;5610;52.154;9.198;2024-02-26T10:07:06;7.63;;;6.27;;
11113;SDS011;5610;52.154;9.198;2024-02-26T10:09:55;12.77;;;7.17;;
11113;SDS011;5610;52.154;9.198;2024-02-26T10:12:40;6.60;;;5.93;;
11113;SDS011;5610;52.154;9.198;2024-02-26T10:15:26;8.40;;;6.30;;
11113;SDS011;5610;52.154;9.198;2024-02-26T10:18:11;7.10;;;6.40;;
11113;SDS011;5610;52.154;9.198;2024-02-26T10:21:00;9.70;;;7.20;;
11113;SDS011;5610;52.154;9.198;2024-02-26T10:23:47;7.50;;;6.73;;
11113;SDS011;5610;52.154;9.198;2024-02-26T10:26:34;8.10;;;6.93;;
11113;SDS011;5610;52.154;9.198;2024-02-26T10:29:19;10.43;;;7.30;;
11113;SDS011;5610;52.154;9.198;2024-02-26T10:32:05;7.63;;;6.93;;
11113;SDS011;5610;52.154;9.198;2024-02-26T10:34:55;8.73;;;7.50;;
11113;SDS011;5610;52.154;9.198;2024-02-26T10:37:40;9.27;;;7.20;;
11113;SDS011;5610;52.154;9.198;2024-02-26T10:40:27;13.87;;;8.33;;
11113;SDS011;5610;52.154;9.198;2024-02-26T10:43:12;10.93;;;8.47;;
11113;SDS011;5610;52.154;9.198;2024-02-26T10:45:58;9.17;;;8.17;;
11113;SDS011;5610;52.154;9.198;2024-02-26T10:48:48;13.30;;;10.57;;
11113;SDS011;5610;52.154;9.198;2024-02-26T10:51:35;10.10;;;9.17;;
11113;SDS011;5610;52.154;9.198;2024-02-26T10:54:24;13.50;;;10.70;;
11113;SDS011;5610;52.154;9.198;2024-02-26T10:57:13;19.60;;;16.07;;
11113;SDS011;5610;52.154;9.198;2024-02-26T11:00:00;23.80;;;16.37;;
11113;SDS011;5610;52.154;9.198;2024-02-26T11:02:48;28.13;;;17.80;;
11113;SDS011;5610;52.154;9.198;2024-02-26T11:05:33;23.23;;;13.43;;
11113;SDS011;5610;52.154;9.198;2024-02-26T11:08:19;15.57;;;11.60;;
11113;SDS011;5610;52.154;9.198;2024-02-26T11:11:05;9.83;;;7.83;;
11113;SDS011;5610;52.154;9.198;2024-02-26T11:13:52;6.60;;;6.00;;
11113;SDS011;5610;52.154;9.198;2024-02-26T11:16:39;6.47;;;5.87;;
11113;SDS011;5610;52.154;9.198;2024-02-26T11:19:26;10.97;;;8.90;;
11113;SDS011;5610;52.154;9.198;2024-02-26T11:22:12;7.67;;;6.60;;
11113;SDS011;5610;52.154;9.198;2024-02-26T11:24:57;5.17;;;4.67;;
11113;SDS011;5610;52.154;9.198;2024-02-26T11:27:47;6.57;;;5.90;;
11113;SDS011;5610;52.154;9.198;2024-02-26T11:30:37;6.80;;;5.67;;
11113;SDS011;5610;52.154;9.198;2024-02-26T11:33:25;5.50;;;5.00;;
11113;SDS011;5610;52.154;9.198;2024-02-26T11:36:11;6.17;;;4.90;;
11113;SDS011;5610;52.154;9.198;2024-02-26T11:38:58;5.00;;;4.43;;
11113;SDS011;5610;52.154;9.198;2024-02-26T11:41:43;6.00;;;4.80;;
11113;SDS011;5610;52.154;9.198;2024-02-26T11:44:28;6.37;;;4.40;;
11113;SDS011;5610;52.154;9.198;2024-02-26T11:47:17;4.10;;;3.30;;
11113;SDS011;5610;52.154;9.198;2024-02-26T11:53:25;3.70;;;3.40;;
11113;SDS011;5610;52.154;9.198;2024-02-26T11:56:19;4.73;;;3.13;;
11113;SDS011;5610;52.154;9.198;2024-02-26T11:59:10;3.53;;;3.20;;
11113;SDS011;5610;52.154;9.198;2024-02-26T12:01:56;3.30;;;3.00;;
11113;SDS011;5610;52.154;9.198;2024-02-26T12:04:43;2.87;;;2.67;;
11113;SDS011;5610;52.154;9.198;2024-02-26T12:07:28;2.77;;;2.57;;
11113;SDS011;5610;52.154;9.198;2024-02-26T12:10:14;2.90;;;2.67;;
11113;SDS011;5610;52.154;9.198;2024-02-26T12:13:06;2.83;;;2.63;;
11113;SDS011;5610;52.154;9.198;2024-02-26T12:15:57;2.90;;;2.63;;
11113;SDS011;5610;52.154;9.198;2024-02-26T12:18:43;2.83;;;2.63;;
11113;SDS011;5610;52.154;9.198;2024-02-26T12:21:31;3.37;;;2.87;;
11113;SDS011;5610;52.154;9.198;2024-02-26T12:24:16;3.70;;;2.90;;
11113;SDS011;5610;52.154;9.198;2024-02-26T12:27:03;3.70;;;2.33;;
11113;SDS011;5610;52.154;9.198;2024-02-26T12:29:50;2.93;;;2.70;;
11113;SDS011;5610;52.154;9.198;2024-02-26T12:32:35;3.10;;;2.70;;
11113;SDS011;5610;52.154;9.198;2024-02-26T12:35:20;2.60;;;2.40;;
11113;SDS011;5610;52.154;9.198;2024-02-26T12:38:07;3.10;;;2.80;;
11113;SDS011;5610;52.154;9.198;2024-02-26T12:40:52;3.70;;;3.17;;
11113;SDS011;5610;52.154;9.198;2024-02-26T12:43:38;3.97;;;3.57;;
11113;SDS011;5610;52.154;9.198;2024-02-26T12:46:23;3.97;;;3.50;;
11113;SDS011;5610;52.154;9.198;2024-02-26T12:49:08;2.40;;;2.20;;
11113;SDS011;5610;52.154;9.198;2024-02-26T12:51:59;3.13;;;2.60;;
11113;SDS011;5610;52.154;9.198;2024-02-26T12:54:47;4.50;;;4.10;;
11113;SDS011;5610;52.154;9.198;2024-02-26T12:57:32;3.77;;;3.33;;
11113;SDS011;5610;52.154;9.198;2024-02-26T13:00:19;4.57;;;3.80;;
11113;SDS011;5610;52.154;9.198;2024-02-26T13:03:06;3.80;;;3.50;;
11113;SDS011;5610;52.154;9.198;2024-02-26T13:05:53;3.70;;;3.40;;
11113;SDS011;5610;52.154;9.198;2024-02-26T13:08:38;3.10;;;2.80;;
11113;SDS011;5610;52.154;9.198;2024-02-26T13:11:25;5.33;;;2.83;;
11113;SDS011;5610;52.154;9.198;2024-02-26T13:14:18;3.40;;;3.10;;
11113;SDS011;5610;52.154;9.198;2024-02-26T13:17:04;4.70;;;3.60;;
11113;SDS011;5610;52.154;9.198;2024-02-26T13:19:49;4.93;;;3.30;;
11113;SDS011;5610;52.154;9.198;2024-02-26T13:22:35;4.97;;;3.97;;
11113;SDS011;5610;52.154;9.198;2024-02-26T13:25:20;6.60;;;4.70;;
11113;SDS011;5610;52.154;9.198;2024-02-26T13:28:08;3.57;;;3.27;;
11113;SDS011;5610;52.154;9.198;2024-02-26T13:30:55;5.13;;;3.83;;
11113;SDS011;5610;52.154;9.198;2024-02-26T13:33:40;6.40;;;3.83;;
11113;SDS011;5610;52.154;9.198;2024-02-26T13:36:26;6.00;;;4.30;;
11113;SDS011;5610;52.154;9.198;2024-02-26T13:39:10;4.93;;;3.60;;
11113;SDS011;5610;52.154;9.198;2024-02-26T13:42:07;5.10;;;4.60;;
11113;SDS011;5610;52.154;9.198;2024-02-26T13:44:57;5.63;;;4.90;;
11113;SDS011;5610;52.154;9.198;2024-02-26T13:47:42;8.30;;;5.70;;
11113;SDS011;5610;52.154;9.198;2024-02-26T13:50:28;24.27;;;11.30;;
11113;SDS011;5610;52.154;9.198;2024-02-26T13:53:13;9.60;;;6.00;;
11113;SDS011;5610;52.154;9.198;2024-02-26T13:55:58;10.50;;;9.40;;
11113;SDS011;5610;52.154;9.198;2024-02-26T13:58:45;6.13;;;5.57;;
11113;SDS011;5610;52.154;9.198;2024-02-26T14:01:31;5.37;;;4.87;;
11113;SDS011;5610;52.154;9.198;2024-02-26T14:04:17;6.10;;;5.40;;
11113;SDS011;5610;52.154;9.198;2024-02-26T14:07:03;5.77;;;5.27;;
11113;SDS011;5610;52.154;9.198;2024-02-26T14:09:48;4.73;;;4.20;;
11113;SDS011;5610;52.154;9.198;2024-02-26T14:12:35;5.07;;;4.60;;
11113;SDS011;5610;52.154;9.198;2024-02-26T14:15:20;5.77;;;4.83;;
11113;SDS011;5610;52.154;9.198;2024-02-26T14:18:07;7.60;;;5.50;;
11113;SDS011;5610;52.154;9.198;2024-02-26T14:20:52;7.20;;;5.23;;
11113;SDS011;5610;52.154;9.198;2024-02-26T14:23:37;7.17;;;5.03;;
11113;SDS011;5610;52.154;9.198;2024-02-26T14:26:23;8.57;;;5.47;;
11113;SDS011;5610;52.154;9.198;2024-02-26T14:29:09;5.53;;;4.27;;
11113;SDS011;5610;52.154;9.198;2024-02-26T14:31:54;8.00;;;4.90;;
11113;SDS011;5610;52.154;9.198;2024-02-26T14:34:41;6.53;;;5.63;;
11113;SDS011;5610;52.154;9.198;2024-02-26T14:37:26;8.70;;;7.10;;
11113;SDS011;5610;52.154;9.198;2024-02-26T14:40:12;6.30;;;5.70;;
11113;SDS011;5610;52.154;9.198;2024-02-26T14:42:57;5.63;;;5.13;;
11113;SDS011;5610;52.154;9.198;2024-02-26T14:45:43;5.40;;;4.90;;
11113;SDS011;5610;52.154;9.198;2024-02-26T14:48:28;4.90;;;4.33;;
11113;SDS011;5610;52.154;9.198;2024-02-26T14:51:16;5.83;;;4.37;;
11113;SDS011;5610;52.154;9.198;2024-02-26T14:54:01;5.23;;;3.97;;
11113;SDS011;5610;52.154;9.198;2024-02-26T14:56:46;4.50;;;4.10;;
11113;SDS011;5610;52.154;9.198;2024-02-26T14:59:31;4.07;;;3.77;;
11113;SDS011;5610;52.154;9.198;2024-02-26T15:02:17;3.97;;;3.57;;
11113;SDS011;5610;52.154;9.198;2024-02-26T15:05:02;4.53;;;3.67;;
11113;SDS011;5610;52.154;9.198;2024-02-26T15:07:52;4.43;;;3.60;;
11113;SDS011;5610;52.154;9.198;2024-02-26T15:10:38;4.60;;;4.20;;
11113;SDS011;5610;52.154;9.198;2024-02-26T15:13:23;4.40;;;4.00;;
11113;SDS011;5610;52.154;9.198;2024-02-26T15:16:08;4.53;;;4.13;;
11113;SDS011;5610;52.154;9.198;2024-02-26T15:18:53;7.23;;;5.27;;
11113;SDS011;5610;52.154;9.198;2024-02-26T15:21:42;6.60;;;6.00;;
11113;SDS011;5610;52.154;9.198;2024-02-26T15:24:29;7.33;;;6.60;;
11113;SDS011;5610;52.154;9.198;2024-02-26T15:27:14;5.57;;;5.07;;
11113;SDS011;5610;52.154;9.198;2024-02-26T15:30:00;4.83;;;4.33;;
11113;SDS011;5610;52.154;9.198;2024-02-26T15:32:46;5.40;;;4.70;;
11113;SDS011;5610;52.154;9.198;2024-02-26T15:35:31;5.83;;;5.33;;
11113;SDS011;5610;52.154;9.198;2024-02-26T15:38:17;6.03;;;4.80;;
11113;SDS011;5610;52.154;9.198;2024-02-26T15:41:03;6.20;;;4.70;;
11113;SDS011;5610;52.154;9.198;2024-02-26T15:43:55;5.57;;;3.97;;
11113;SDS011;5610;52.154;9.198;2024-02-26T15:46:41;4.10;;;3.53;;
11113;SDS011;5610;52.154;9.198;2024-02-26T15:49:26;4.80;;;4.30;;
11113;SDS011;5610;52.154;9.198;2024-02-26T15:52:11;4.50;;;4.10;;
11113;SDS011;5610;52.154;9.198;2024-02-26T15:54:57;4.90;;;3.93;;
11113;SDS011;5610;52.154;9.198;2024-02-26T15:57:43;4.67;;;3.23;;
11113;SDS011;5610;52.154;9.198;2024-02-26T16:00:28;3.90;;;3.50;;
11113;SDS011;5610;52.154;9.198;2024-02-26T16:03:13;3.73;;;3.40;;
11113;SDS011;5610;52.154;9.198;2024-02-26T16:05:58;3.73;;;3.43;;
11113;SDS011;5610;52.154;9.198;2024-02-26T16:08:43;3.47;;;3.10;;
11113;SDS011;5610;52.154;9.198;2024-02-26T16:11:29;3.50;;;3.20;;
11113;SDS011;5610;52.154;9.198;2024-02-26T16:14:16;3.70;;;2.80;;
11113;SDS011;5610;52.154;9.198;2024-02-26T16:17:12;6.10;;;5.50;;
11113;SDS011;5610;52.154;9.198;2024-02-26T16:20:03;4.53;;;4.13;;
11113;SDS011;5610;52.154;9.198;2024-02-26T16:22:48;5.10;;;4.33;;
11113;SDS011;5610;52.154;9.198;2024-02-26T16:25:33;4.60;;;4.20;;
11113;SDS011;5610;52.154;9.198;2024-02-26T16:28:19;7.67;;;5.60;;
11113;SDS011;5610;52.154;9.198;2024-02-26T16:31:10;4.40;;;4.00;;
11113;SDS011;5610;52.154;9.198;2024-02-26T16:33:55;6.60;;;5.83;;
11113;SDS011;5610;52.154;9.198;2024-02-26T16:36:41;5.70;;;4.70;;
11113;SDS011;5610;52.154;9.198;2024-02-26T16:39:26;5.07;;;4.57;;
11113;SDS011;5610;52.154;9.198;2024-02-26T16:42:11;3.53;;;3.10;;
11113;SDS011;5610;52.154;9.198;2024-02-26T16:44:56;3.73;;;3.40;;
11113;SDS011;5610;52.154;9.198;2024-02-26T16:47:44;3.97;;;3.30;;
11113;SDS011;5610;52.154;9.198;2024-02-26T16:50:29;3.47;;;3.17;;
11113;SDS011;5610;52.154;9.198;2024-02-26T16:53:14;3.30;;;2.90;;
11113;SDS011;5610;52.154;9.198;2024-02-26T16:55:59;3.33;;;3.03;;
11113;SDS011;5610;52.154;9.198;2024-02-26T16:58:46;3.30;;;3.00;;